This is the latest recevied weather packets stored in our database for station/object IU4KCH-20. If no packets are shown the sender has not sent any weather packets the latest 10 day(s).
| Time | Temp. | Humidity | Pressure | Rain* | Wind** | Luminosity | Snow |
|---|---|---|---|---|---|---|---|
| 1777081701 | 15° C | 38% | 1012.7 hPa | - | - | - | - |
| 1777080800 | 16.11° C | 34% | 1012.7 hPa | - | - | - | - |
| 1777079899 | 16.67° C | 31% | 1012.6 hPa | - | - | - | - |
| 1777079002 | 16.67° C | 31% | 1012.6 hPa | - | - | - | - |
| 1777078098 | 16.67° C | 31% | 1012.5 hPa | - | - | - | - |
| 1777076297 | 17.22° C | 30% | 1012.5 hPa | - | - | - | - |
| 1777075395 | 16.67° C | 31% | 1012.5 hPa | - | - | - | - |
| 1777074494 | 17.78° C | 33% | 1012.6 hPa | - | - | - | - |
| 1777073594 | 18.33° C | 28% | 1012.4 hPa | - | - | - | - |
| 1777072693 | 18.89° C | 27% | 1012.4 hPa | - | - | - | - |
| 1777071792 | 18.89° C | 28% | 1012.4 hPa | - | - | - | - |
| 1777069990 | 19.44° C | 26% | 1012.3 hPa | - | - | - | - |
| 1777069089 | 19.44° C | 27% | 1012.4 hPa | - | - | - | - |
| 1777068189 | 19.44° C | 28% | 1012.5 hPa | - | - | - | - |
| 1777067288 | 20° C | 26% | 1012.4 hPa | - | - | - | - |
| 1777066387 | 20° C | 26% | 1012.2 hPa | - | - | - | - |
| 1777065486 | 20.56° C | 28% | 1012.4 hPa | - | - | - | - |
| 1777064585 | 20.56° C | 26% | 1012.1 hPa | - | - | - | - |
| 1777063684 | 21.11° C | 30% | 1012.1 hPa | - | - | - | - |
| 1777062784 | 21.11° C | 28% | 1012 hPa | - | - | - | - |
| 1777061883 | 21.67° C | 27% | 1012 hPa | - | - | - | - |
| 1777060982 | 21.67° C | 29% | 1011.9 hPa | - | - | - | - |
| 1777060081 | 22.78° C | 25% | 1011.7 hPa | - | - | - | - |
| 1777059180 | 23.33° C | 24% | 1011.7 hPa | - | - | - | - |
| 1777058279 | 23.33° C | 26% | 1011.6 hPa | - | - | - | - |
* Rain since midnight (hover to see other rain measurements)
** Current wind speed in m/s (hover to see current wind gust speed)